Etusivu
METAR-TAF:

METAR-TAF

Lentoasemat :

Touho, Uusi-Kaledonia

Leveyspiiri: 20-47-25S, Pituuspiiri: 165-15-34E, korkeus merenpinnasta: 3 m

METAR: puuttuu

Aika: 06:11 (19:11 UTC)

Sääennuste

Tämä raportti tehtiin 2 tuntia ja 11 minuuttia sitten, kello 17.00 UTC
Ennuste voimassa 01. päivästä klo 18 UTC - 02. päivään klo 18 UTC
Tuuli 2 kn eri suunnista
Näkyvyys 10 km tai enemmän
Muutamia pilviä 4000 ft:n korkeudessa
Hajanaisia pilviä 7000 ft:n korkeudessa

TAF: NWWU 011700Z 0118/0218 VRB02KT 9999 FEW040 SCT070

Säähavainnot ja -ennusteet yli 4000 lentoasemalta (METAR- ja TAF-raportit).

Käytössä olevat sääasemat on merkitty karttaan keltaisilla ja punaisilla pisteillä.

Aseta hiiri pisteen päälle nähdäksesi sääaseman nimen.

Klikkaa sitten nähdäksesi säähavainnot ja -ennusteet.

Kartan vaihtaminen: klikkaa mustalla rastilla varustettuja vihreitä pisteitä, niin voit zoomata sisään; viivalla varustettua vihreää pistettä, niin voit zoomata ulos tai vihreitä nuolia, niin pääset viereisille kartoille.


METAR-TAF: